Time;durP1;ratioP1;P1;durP2;ratioP2;P2;SDS_P1;SDS_P2;PMS_P1;PMS_P2;Temp;Humidity;BMP_temperature;BMP_pressure;BME280_temperature;BME280_humidity;BME280_pressure;Samples;Min_cycle;Max_cycle;Signal;HPM_P1;HPM_P2
2021/03/12 00:00:17;;;;;;;6.53;3.97;;;;;;;;;;5068225;28;21253;-87
2021/03/12 00:02:43;;;;;;;8.10;3.85;;;;;;;;;;5068425;28;20447;-86
2021/03/12 00:05:10;;;;;;;6.27;4.10;;;;;;;;;;5049917;28;20398;-86
2021/03/12 00:07:36;;;;;;;8.50;4.33;;;;;;;;;;5068573;28;20371;-85
2021/03/12 00:10:05;;;;;;;6.90;4.20;;;;;;;;;;5050312;28;20378;-87
2021/03/12 00:12:31;;;;;;;8.55;4.10;;;;;;;;;;5050139;28;20862;-85
2021/03/12 00:14:57;;;;;;;6.95;4.28;;;;;;;;;;5050121;28;21216;-86
2021/03/12 00:17:23;;;;;;;6.35;3.90;;;;;;;;;;5051700;28;20366;-87
2021/03/12 00:19:49;;;;;;;7.03;3.92;;;;;;;;;;5054012;28;20377;-86
2021/03/12 00:22:15;;;;;;;7.47;4.28;;;;;;;;;;5054177;28;20388;-86
2021/03/12 00:24:41;;;;;;;7.55;4.20;;;;;;;;;;5068172;28;20498;-87
2021/03/12 00:27:07;;;;;;;8.00;4.40;;;;;;;;;;5071968;28;20408;-86
2021/03/12 00:29:33;;;;;;;9.38;4.03;;;;;;;;;;5072141;28;20416;-85
2021/03/12 00:31:59;;;;;;;5.45;3.97;;;;;;;;;;5053827;28;20758;-87
2021/03/12 00:34:25;;;;;;;7.45;4.43;;;;;;;;;;5071913;28;20370;-86
2021/03/12 00:36:51;;;;;;;7.27;4.27;;;;;;;;;;5054112;28;20374;-86
2021/03/12 00:39:17;;;;;;;8.03;4.57;;;;;;;;;;5071788;28;20452;-86
2021/03/12 00:41:43;;;;;;;9.07;4.10;;;;;;;;;;5053619;28;20743;-86
2021/03/12 00:44:09;;;;;;;8.38;4.35;;;;;;;;;;5053497;28;20492;-87
2021/03/12 00:46:35;;;;;;;7.63;3.85;;;;;;;;;;5053576;28;20378;-86
2021/03/12 00:49:00;;;;;;;8.95;4.05;;;;;;;;;;5053368;28;20859;-86
2021/03/12 00:51:26;;;;;;;8.38;3.80;;;;;;;;;;5053232;28;20379;-86
2021/03/12 00:53:52;;;;;;;6.20;3.88;;;;;;;;;;5070105;28;20381;-85
2021/03/12 00:56:18;;;;;;;8.95;3.50;;;;;;;;;;5071476;28;20401;-87
2021/03/12 00:58:44;;;;;;;6.80;3.28;;;;;;;;;;5070313;28;20370;-86
2021/03/12 01:01:10;;;;;;;7.28;3.20;;;;;;;;;;5071327;28;20369;-84
2021/03/12 01:03:38;;;;;;;6.70;3.42;;;;;;;;;;5070039;28;20421;-87
2021/03/12 01:06:04;;;;;;;7.85;3.90;;;;;;;;;;5071341;28;20451;-86
2021/03/12 01:08:30;;;;;;;8.10;3.95;;;;;;;;;;5070210;28;20901;-86
2021/03/12 01:10:56;;;;;;;7.25;3.70;;;;;;;;;;5069654;28;20374;-86
2021/03/12 01:13:22;;;;;;;9.52;4.18;;;;;;;;;;5068990;28;20383;-85
2021/03/12 01:15:48;;;;;;;6.30;3.35;;;;;;;;;;5069737;28;20449;-86
2021/03/12 01:18:15;;;;;;;8.93;4.07;;;;;;;;;;5071139;28;20831;-85
2021/03/12 01:20:41;;;;;;;7.60;3.90;;;;;;;;;;5078326;28;20374;-85
2021/03/12 01:23:07;;;;;;;5.70;3.40;;;;;;;;;;5081495;28;21159;-85
2021/03/12 01:25:41;;;;;;;6.15;3.60;;;;;;;;;;5070544;28;20366;-86
2021/03/12 01:28:07;;;;;;;7.20;3.60;;;;;;;;;;5052889;28;20377;-86
2021/03/12 01:30:35;;;;;;;5.75;3.40;;;;;;;;;;5052894;28;20393;-87
2021/03/12 01:33:01;;;;;;;5.47;3.45;;;;;;;;;;5071420;28;20378;-85
2021/03/12 01:35:27;;;;;;;6.13;3.30;;;;;;;;;;5070665;28;20381;-86
2021/03/12 01:37:53;;;;;;;7.78;3.90;;;;;;;;;;5070492;28;20461;-87
2021/03/12 01:40:20;;;;;;;6.00;3.10;;;;;;;;;;5070464;28;20377;-85
2021/03/12 01:42:46;;;;;;;6.70;3.40;;;;;;;;;;5052547;28;20396;-85
2021/03/12 01:45:14;;;;;;;6.70;3.35;;;;;;;;;;5070162;28;20406;-86
2021/03/12 01:47:40;;;;;;;6.90;3.28;;;;;;;;;;5070184;28;20374;-86
2021/03/12 01:50:06;;;;;;;8.05;3.45;;;;;;;;;;5052580;28;20370;-86
2021/03/12 01:52:32;;;;;;;5.73;3.03;;;;;;;;;;5052205;28;20473;-86
2021/03/12 01:54:58;;;;;;;6.45;3.28;;;;;;;;;;5052117;28;20385;-87
2021/03/12 01:57:25;;;;;;;7.10;3.97;;;;;;;;;;5052413;28;20449;-86
2021/03/12 01:59:51;;;;;;;5.63;3.35;;;;;;;;;;5052443;28;20386;-86
2021/03/12 02:02:17;;;;;;;7.47;4.20;;;;;;;;;;5052174;28;20370;-86
2021/03/12 02:04:43;;;;;;;6.78;4.20;;;;;;;;;;5069807;28;20405;-84
2021/03/12 02:07:09;;;;;;;7.10;3.90;;;;;;;;;;5051986;28;20477;-85
2021/03/12 02:09:36;;;;;;;4.63;3.47;;;;;;;;;;5052825;28;20461;-86
2021/03/12 02:12:08;;;;;;;8.23;4.10;;;;;;;;;;5052078;28;20400;-85
2021/03/12 02:14:43;;;;;;;5.27;4.00;;;;;;;;;;5052034;28;20467;-85
2021/03/12 02:17:14;;;;;;;6.93;4.15;;;;;;;;;;5052062;28;20812;-85
2021/03/12 02:19:43;;;;;;;6.72;4.13;;;;;;;;;;5051751;28;20435;-86
2021/03/12 02:22:10;;;;;;;7.97;4.47;;;;;;;;;;5051419;28;20398;-85
2021/03/12 02:24:36;;;;;;;7.05;4.18;;;;;;;;;;5051333;28;20607;-84
2021/03/12 02:27:06;;;;;;;7.22;4.13;;;;;;;;;;5051408;28;20382;-85
2021/03/12 02:29:33;;;;;;;9.77;4.63;;;;;;;;;;5051514;28;20366;-84
2021/03/12 02:32:00;;;;;;;9.20;4.30;;;;;;;;;;5051396;28;20902;-84
2021/03/12 02:34:27;;;;;;;8.77;4.30;;;;;;;;;;5051556;28;20370;-83
2021/03/12 02:36:55;;;;;;;8.55;4.15;;;;;;;;;;5051315;28;20390;-85
2021/03/12 02:39:23;;;;;;;8.93;4.37;;;;;;;;;;5051148;28;20370;-84
2021/03/12 02:41:50;;;;;;;7.82;4.30;;;;;;;;;;5050417;28;20469;-85
2021/03/12 02:44:17;;;;;;;7.47;3.83;;;;;;;;;;5069405;28;20470;-85
2021/03/12 02:46:43;;;;;;;7.93;4.38;;;;;;;;;;5051390;28;20379;-85
2021/03/12 02:49:10;;;;;;;8.45;4.38;;;;;;;;;;5050939;28;20457;-84
2021/03/12 02:51:36;;;;;;;7.28;4.50;;;;;;;;;;5051261;28;20444;-85
2021/03/12 02:54:02;;;;;;;8.23;4.80;;;;;;;;;;5050971;28;20970;-85
2021/03/12 02:56:29;;;;;;;8.13;4.25;;;;;;;;;;5051104;28;20381;-84
2021/03/12 02:58:55;;;;;;;8.27;4.47;;;;;;;;;;5069607;28;20806;-85
2021/03/12 03:01:22;;;;;;;6.43;4.07;;;;;;;;;;5064232;28;20409;-84
2021/03/12 03:03:48;;;;;;;6.85;4.15;;;;;;;;;;5075088;28;20546;-85
2021/03/12 03:06:16;;;;;;;8.27;4.07;;;;;;;;;;5068573;28;20444;-85
2021/03/12 03:08:43;;;;;;;7.37;4.00;;;;;;;;;;5051620;28;20804;-85
2021/03/12 03:11:10;;;;;;;8.30;4.20;;;;;;;;;;5050934;28;20379;-82
2021/03/12 03:13:37;;;;;;;6.10;3.90;;;;;;;;;;5069321;28;20385;-85
2021/03/12 03:16:07;;;;;;;4.93;3.75;;;;;;;;;;5051479;28;20393;-84
2021/03/12 03:18:36;;;;;;;6.82;3.92;;;;;;;;;;5050906;28;20383;-85
2021/03/12 03:21:03;;;;;;;6.55;3.70;;;;;;;;;;5069223;28;20374;-85
2021/03/12 03:23:29;;;;;;;7.77;3.80;;;;;;;;;;5065606;28;20425;-87
2021/03/12 03:25:55;;;;;;;6.93;3.50;;;;;;;;;;5084068;28;20378;-84
2021/03/12 03:28:21;;;;;;;6.80;3.67;;;;;;;;;;5051151;28;20390;-86
2021/03/12 03:30:48;;;;;;;7.77;3.37;;;;;;;;;;5050771;28;20370;-86
2021/03/12 03:33:14;;;;;;;6.63;3.20;;;;;;;;;;5051002;28;20401;-83
2021/03/12 03:35:40;;;;;;;6.45;2.78;;;;;;;;;;5069303;28;20366;-86
2021/03/12 03:38:06;;;;;;;6.43;3.00;;;;;;;;;;5068882;28;20389;-86
2021/03/12 03:40:32;;;;;;;5.40;2.87;;;;;;;;;;5068894;28;20366;-85
2021/03/12 03:42:59;;;;;;;5.50;2.70;;;;;;;;;;5050036;28;20381;-86
2021/03/12 03:45:26;;;;;;;5.35;2.33;;;;;;;;;;5051148;28;20702;-86
2021/03/12 03:47:52;;;;;;;4.95;2.55;;;;;;;;;;5069180;28;20382;-86
2021/03/12 03:50:18;;;;;;;4.90;2.30;;;;;;;;;;5068611;28;20366;-85
2021/03/12 03:52:44;;;;;;;5.60;2.35;;;;;;;;;;5052753;28;20457;-86
2021/03/12 03:55:11;;;;;;;6.47;2.70;;;;;;;;;;5072937;28;20811;-85
2021/03/12 03:57:37;;;;;;;4.68;2.50;;;;;;;;;;5054743;28;20460;-85
2021/03/12 04:00:07;;;;;;;6.35;2.65;;;;;;;;;;5054604;28;20431;-85
2021/03/12 04:02:34;;;;;;;5.75;2.60;;;;;;;;;;5072651;28;20370;-86
2021/03/12 04:05:00;;;;;;;4.68;2.63;;;;;;;;;;5072471;28;20401;-86
2021/03/12 04:07:26;;;;;;;5.63;2.73;;;;;;;;;;5072497;28;20894;-85
2021/03/12 04:09:52;;;;;;;5.72;2.33;;;;;;;;;;5072874;28;20362;-86
2021/03/12 04:12:19;;;;;;;6.72;2.42;;;;;;;;;;5072294;28;20378;-85
2021/03/12 04:14:46;;;;;;;3.73;2.10;;;;;;;;;;5054656;28;20751;-85
2021/03/12 04:17:12;;;;;;;5.53;2.30;;;;;;;;;;5054341;28;20378;-86
2021/03/12 04:19:39;;;;;;;5.10;2.17;;;;;;;;;;5072162;28;20366;-86
2021/03/12 04:22:07;;;;;;;5.28;2.58;;;;;;;;;;5054175;28;20402;-85
2021/03/12 04:24:33;;;;;;;5.78;2.10;;;;;;;;;;5053957;28;20422;-85
2021/03/12 04:26:59;;;;;;;7.38;2.70;;;;;;;;;;5071914;28;20715;-87
2021/03/12 04:29:25;;;;;;;4.57;2.13;;;;;;;;;;5053528;28;20469;-85
2021/03/12 04:31:52;;;;;;;5.15;2.10;;;;;;;;;;5053963;28;20465;-85
2021/03/12 04:34:18;;;;;;;4.95;2.17;;;;;;;;;;5071665;28;20374;-85
2021/03/12 04:36:44;;;;;;;4.97;2.00;;;;;;;;;;5053532;28;20377;-83
2021/03/12 04:39:10;;;;;;;3.72;2.20;;;;;;;;;;5053692;28;20378;-86
2021/03/12 04:41:36;;;;;;;6.40;2.07;;;;;;;;;;5071707;28;20370;-85
2021/03/12 04:44:04;;;;;;;7.55;2.40;;;;;;;;;;5053362;28;20410;-85
2021/03/12 04:46:30;;;;;;;6.53;2.55;;;;;;;;;;5053426;28;20887;-84
2021/03/12 04:48:56;;;;;;;8.35;2.70;;;;;;;;;;5053130;28;20457;-84
2021/03/12 04:51:22;;;;;;;6.40;2.53;;;;;;;;;;5071406;28;20382;-85
2021/03/12 04:53:49;;;;;;;5.63;2.50;;;;;;;;;;5051805;28;20371;-86
2021/03/12 04:56:15;;;;;;;7.43;2.72;;;;;;;;;;5070288;28;20377;-85
2021/03/12 04:58:41;;;;;;;5.95;2.58;;;;;;;;;;5069799;28;20374;-85
2021/03/12 05:01:10;;;;;;;5.30;2.95;;;;;;;;;;5069909;28;20516;-84
2021/03/12 05:03:40;;;;;;;8.05;2.92;;;;;;;;;;5070336;28;20390;-83
2021/03/12 05:06:08;;;;;;;5.28;3.40;;;;;;;;;;5069690;28;20528;-84
2021/03/12 05:08:35;;;;;;;6.55;3.83;;;;;;;;;;5069790;28;20406;-85
2021/03/12 05:11:02;;;;;;;6.63;3.90;;;;;;;;;;5070633;28;20427;-84
2021/03/12 05:13:28;;;;;;;6.97;3.83;;;;;;;;;;5069168;28;20374;-83
2021/03/12 05:15:54;;;;;;;8.13;4.57;;;;;;;;;;5069795;28;20382;-85
2021/03/12 05:18:20;;;;;;;8.75;4.75;;;;;;;;;;5069590;28;20374;-84
2021/03/12 05:20:47;;;;;;;6.75;4.55;;;;;;;;;;5070820;28;20370;-84
2021/03/12 05:23:13;;;;;;;7.93;5.15;;;;;;;;;;5068454;28;21449;-83
2021/03/12 05:25:40;;;;;;;8.27;5.20;;;;;;;;;;5083587;28;20519;-84
2021/03/12 05:28:06;;;;;;;9.68;5.00;;;;;;;;;;5070778;28;20389;-83
2021/03/12 05:30:32;;;;;;;11.27;5.90;;;;;;;;;;5052359;28;20492;-83
2021/03/12 05:32:58;;;;;;;9.05;5.57;;;;;;;;;;5070690;28;20876;-84
2021/03/12 05:35:24;;;;;;;8.38;5.65;;;;;;;;;;5052668;28;20390;-84
2021/03/12 05:37:50;;;;;;;9.75;5.78;;;;;;;;;;5070392;28;20379;-84
2021/03/12 05:40:16;;;;;;;9.25;5.70;;;;;;;;;;5051954;28;20729;-84
2021/03/12 05:42:42;;;;;;;12.57;5.95;;;;;;;;;;5040458;28;20382;-85
2021/03/12 05:45:09;;;;;;;11.30;7.10;;;;;;;;;;5068745;28;20449;-84
2021/03/12 05:47:36;;;;;;;9.75;6.18;;;;;;;;;;5069548;28;20431;-84
2021/03/12 05:50:02;;;;;;;9.05;6.30;;;;;;;;;;5066213;28;20466;-85
2021/03/12 05:52:29;;;;;;;11.63;6.53;;;;;;;;;;5057222;28;20385;-84
2021/03/12 05:54:55;;;;;;;12.10;5.83;;;;;;;;;;5076224;28;20386;-85
2021/03/12 05:57:23;;;;;;;11.18;6.15;;;;;;;;;;5077077;28;20378;-85
2021/03/12 05:59:49;;;;;;;8.40;5.07;;;;;;;;;;5060563;28;20400;-84
2021/03/12 06:02:14;;;;;;;7.75;5.65;;;;;;;;;;5062116;28;20908;-84
2021/03/12 06:04:40;;;;;;;9.70;5.70;;;;;;;;;;5057139;28;20402;-85
2021/03/12 06:07:06;;;;;;;10.30;5.95;;;;;;;;;;5077908;28;20389;-84
2021/03/12 06:09:33;;;;;;;8.55;6.47;;;;;;;;;;5056963;28;20386;-84
2021/03/12 06:11:58;;;;;;;11.63;6.50;;;;;;;;;;5043435;28;20382;-83
2021/03/12 06:14:43;;;;;;;9.73;6.22;;;;;;;;;;5054073;28;20439;-84
2021/03/12 06:17:09;;;;;;;10.43;6.63;;;;;;;;;;5067534;28;20489;-84
2021/03/12 06:19:35;;;;;;;10.80;5.72;;;;;;;;;;5051921;28;20947;-83
2021/03/12 06:22:08;;;;;;;11.18;6.95;;;;;;;;;;5057604;28;20390;-85
2021/03/12 06:24:34;;;;;;;9.75;7.60;;;;;;;;;;5060338;28;20413;-86
2021/03/12 06:27:01;;;;;;;11.65;7.95;;;;;;;;;;5071813;28;20379;-88
2021/03/12 06:29:36;;;;;;;10.70;8.23;;;;;;;;;;5090133;28;20377;-84
2021/03/12 06:32:03;;;;;;;13.02;8.52;;;;;;;;;;5089448;28;20380;-84
2021/03/12 06:34:30;;;;;;;12.73;9.30;;;;;;;;;;5090029;28;20411;-86
2021/03/12 06:36:56;;;;;;;11.70;9.18;;;;;;;;;;5090421;28;20957;-87
2021/03/12 06:39:36;;;;;;;12.88;9.32;;;;;;;;;;5090281;28;20990;-85
2021/03/12 06:42:11;;;;;;;13.10;9.48;;;;;;;;;;5071696;28;20901;-85
2021/03/12 06:44:38;;;;;;;12.40;9.80;;;;;;;;;;5089923;28;20396;-86
2021/03/12 06:47:04;;;;;;;12.93;10.15;;;;;;;;;;5089440;28;20411;-87
2021/03/12 06:49:30;;;;;;;12.27;9.52;;;;;;;;;;5089750;28;20433;-86
2021/03/12 06:51:56;;;;;;;12.52;10.13;;;;;;;;;;5071707;28;20377;-84
2021/03/12 06:54:23;;;;;;;11.00;9.43;;;;;;;;;;5089626;28;20465;-85
2021/03/12 06:56:49;;;;;;;13.20;10.23;;;;;;;;;;5071658;28;20479;-87
2021/03/12 06:59:24;;;;;;;12.80;9.20;;;;;;;;;;5089263;28;20369;-84
2021/03/12 07:01:57;;;;;;;15.15;9.60;;;;;;;;;;5089703;28;20741;-84
2021/03/12 07:04:25;;;;;;;11.18;9.30;;;;;;;;;;5071037;28;20409;-86
2021/03/12 07:06:51;;;;;;;10.35;8.82;;;;;;;;;;5069078;28;20400;-86
2021/03/12 07:09:18;;;;;;;12.65;8.90;;;;;;;;;;5060854;28;20468;-87
2021/03/12 07:11:44;;;;;;;11.95;9.50;;;;;;;;;;5049633;28;20378;-84
2021/03/12 07:14:10;;;;;;;11.23;9.43;;;;;;;;;;5054113;28;20393;-84
2021/03/12 07:16:37;;;;;;;11.18;9.07;;;;;;;;;;5068996;28;20371;-87
2021/03/12 07:19:03;;;;;;;10.13;8.65;;;;;;;;;;5050782;28;20378;-85
2021/03/12 07:21:30;;;;;;;11.50;9.43;;;;;;;;;;5050676;28;20374;-84
2021/03/12 07:24:00;;;;;;;10.50;9.40;;;;;;;;;;5043728;28;20414;-85
2021/03/12 07:26:31;;;;;;;13.20;9.70;;;;;;;;;;5056721;28;20412;-86
2021/03/12 07:29:00;;;;;;;12.55;9.30;;;;;;;;;;5068466;28;20396;-86
2021/03/12 07:31:31;;;;;;;11.90;9.32;;;;;;;;;;5050761;28;20455;-86
2021/03/12 07:33:58;;;;;;;12.73;9.65;;;;;;;;;;5050476;28;20864;-85
2021/03/12 07:36:25;;;;;;;12.93;9.43;;;;;;;;;;5063637;28;20489;-83
2021/03/12 07:38:53;;;;;;;12.02;9.45;;;;;;;;;;5053343;28;20365;-84
2021/03/12 07:41:19;;;;;;;14.88;10.23;;;;;;;;;;5062053;28;20394;-84
2021/03/12 07:43:45;;;;;;;13.05;10.00;;;;;;;;;;5049318;28;20865;-83
2021/03/12 07:46:14;;;;;;;10.95;9.65;;;;;;;;;;5068957;28;20857;-86
2021/03/12 07:48:39;;;;;;;12.30;9.50;;;;;;;;;;5068175;28;20783;-84
2021/03/12 07:51:09;;;;;;;10.18;9.07;;;;;;;;;;5068355;28;20378;-84
2021/03/12 07:53:44;;;;;;;11.97;8.53;;;;;;;;;;5074704;28;20385;-87
2021/03/12 07:56:12;;;;;;;13.30;9.48;;;;;;;;;;5066066;28;20383;-85
2021/03/12 07:58:47;;;;;;;10.43;8.48;;;;;;;;;;5065095;28;20394;-85
2021/03/12 08:01:13;;;;;;;10.25;7.95;;;;;;;;;;5056208;28;20394;-83
2021/03/12 08:03:40;;;;;;;9.50;8.30;;;;;;;;;;5074793;28;20404;-85
2021/03/12 08:06:18;;;;;;;10.32;7.30;;;;;;;;;;5053902;28;20456;-84
2021/03/12 08:08:46;;;;;;;10.68;7.47;;;;;;;;;;5049702;28;20370;-86
2021/03/12 08:11:18;;;;;;;9.32;6.63;;;;;;;;;;5067403;28;20394;-85
2021/03/12 08:13:45;;;;;;;10.48;6.93;;;;;;;;;;5049985;28;20748;-85
2021/03/12 08:16:11;;;;;;;10.52;6.88;;;;;;;;;;5045394;28;20375;-86
2021/03/12 08:18:37;;;;;;;8.77;6.28;;;;;;;;;;5036169;28;20390;-85
2021/03/12 08:21:32;;;;;;;8.27;6.13;;;;;;;;;;5030212;28;20384;-85
2021/03/12 08:23:58;;;;;;;7.95;5.90;;;;;;;;;;5033820;28;20418;-81
2021/03/12 08:26:43;;;;;;;7.43;5.65;;;;;;;;;;5050352;28;20782;-84
2021/03/12 08:29:32;;;;;;;8.77;5.97;;;;;;;;;;5044501;28;20386;-82
2021/03/12 08:31:58;;;;;;;10.43;6.50;;;;;;;;;;5044095;28;20404;-88
2021/03/12 08:34:40;;;;;;;11.55;6.82;;;;;;;;;;5032310;28;20390;-84
2021/03/12 08:37:29;;;;;;;8.68;6.30;;;;;;;;;;5040013;28;20884;-84
2021/03/12 08:40:14;;;;;;;8.88;6.28;;;;;;;;;;5031587;28;20464;-84
2021/03/12 08:43:03;;;;;;;8.48;6.10;;;;;;;;;;5052793;28;20438;-85
2021/03/12 08:45:48;;;;;;;8.32;6.28;;;;;;;;;;5050325;28;20491;-85
2021/03/12 08:48:15;;;;;;;9.45;6.40;;;;;;;;;;5050868;28;20442;-85
2021/03/12 08:50:43;;;;;;;10.38;5.75;;;;;;;;;;5073146;28;20376;-86
2021/03/12 08:53:13;;;;;;;8.17;6.47;;;;;;;;;;5072810;28;20897;-86
2021/03/12 08:55:43;;;;;;;10.15;6.68;;;;;;;;;;5083707;28;20457;-83
2021/03/12 08:58:16;;;;;;;7.20;6.13;;;;;;;;;;5053080;28;20375;-82
2021/03/12 09:00:43;;;;;;;12.95;7.72;;;;;;;;;;5055396;28;20849;-82
2021/03/12 09:03:30;;;;;;;9.27;7.05;;;;;;;;;;5073335;28;20405;-82
2021/03/12 09:06:03;;;;;;;11.87;7.37;;;;;;;;;;5054644;28;20557;-82
2021/03/12 09:08:30;;;;;;;9.53;7.20;;;;;;;;;;5054579;28;20369;-82
2021/03/12 09:10:56;;;;;;;9.35;7.05;;;;;;;;;;5053610;28;20382;-83
2021/03/12 09:13:24;;;;;;;11.52;7.85;;;;;;;;;;5053740;28;20377;-83
2021/03/12 09:15:51;;;;;;;12.38;8.20;;;;;;;;;;5057112;28;20377;-83
2021/03/12 09:18:18;;;;;;;11.43;7.78;;;;;;;;;;5066911;28;20738;-83
2021/03/12 09:20:48;;;;;;;9.32;6.80;;;;;;;;;;5087479;28;20973;-83
2021/03/12 09:23:14;;;;;;;10.70;7.70;;;;;;;;;;5036030;28;20844;-82
2021/03/12 09:25:43;;;;;;;10.60;6.73;;;;;;;;;;5052325;28;20427;-84
2021/03/12 09:28:14;;;;;;;10.88;6.90;;;;;;;;;;5071138;28;20777;-84
2021/03/12 09:30:42;;;;;;;11.63;5.87;;;;;;;;;;5053802;28;20386;-83
2021/03/12 09:33:08;;;;;;;10.60;5.90;;;;;;;;;;5055289;28;20378;-83
2021/03/12 09:35:41;;;;;;;9.32;5.90;;;;;;;;;;5064863;28;20384;-83
2021/03/12 09:38:07;;;;;;;9.20;6.07;;;;;;;;;;5064488;28;20420;-83
2021/03/12 09:40:35;;;;;;;9.10;5.30;;;;;;;;;;5047122;28;20497;-83
2021/03/12 09:43:10;;;;;;;8.93;5.28;;;;;;;;;;5049976;28;20382;-83
2021/03/12 09:45:37;;;;;;;9.15;4.68;;;;;;;;;;5073559;28;20406;-83
2021/03/12 09:48:23;;;;;;;8.63;4.93;;;;;;;;;;5055381;28;20402;-83
2021/03/12 09:50:49;;;;;;;11.07;4.85;;;;;;;;;;5063615;28;20382;-83
2021/03/12 09:53:18;;;;;;;9.60;4.43;;;;;;;;;;5070812;28;20380;-83
2021/03/12 09:56:02;;;;;;;8.10;4.50;;;;;;;;;;5066817;28;20942;-83
2021/03/12 09:58:28;;;;;;;6.47;4.18;;;;;;;;;;5060544;28;20378;-83
2021/03/12 10:01:13;;;;;;;7.55;4.05;;;;;;;;;;5073181;28;20382;-83
2021/03/12 10:03:39;;;;;;;8.70;4.35;;;;;;;;;;5051476;28;20437;-83
2021/03/12 10:06:09;;;;;;;8.13;4.20;;;;;;;;;;5052076;28;20400;-83
2021/03/12 10:08:35;;;;;;;8.00;3.85;;;;;;;;;;5052882;28;20386;-83
2021/03/12 10:11:01;;;;;;;7.72;3.35;;;;;;;;;;5054358;28;20398;-84
2021/03/12 10:13:27;;;;;;;8.35;3.92;;;;;;;;;;5069279;28;20465;-83
2021/03/12 10:15:53;;;;;;;7.57;3.50;;;;;;;;;;5063295;28;20394;-84
2021/03/12 10:18:21;;;;;;;9.13;3.65;;;;;;;;;;5066659;28;20382;-83
2021/03/12 10:20:47;;;;;;;9.95;3.40;;;;;;;;;;5064291;28;20381;-83
2021/03/12 10:23:14;;;;;;;9.20;3.83;;;;;;;;;;5054163;28;20374;-85
2021/03/12 10:25:45;;;;;;;10.13;3.60;;;;;;;;;;5064481;28;20485;-83
2021/03/12 10:28:12;;;;;;;7.82;3.30;;;;;;;;;;5052148;28;20386;-83
2021/03/12 10:30:39;;;;;;;10.32;3.75;;;;;;;;;;5070514;28;20469;-83
2021/03/12 10:33:17;;;;;;;9.68;3.55;;;;;;;;;;5054119;28;20378;-83
2021/03/12 10:35:45;;;;;;;10.77;3.80;;;;;;;;;;5061594;28;20436;-83
2021/03/12 10:38:16;;;;;;;9.25;3.80;;;;;;;;;;5072154;28;20433;-84
2021/03/12 10:40:43;;;;;;;6.57;3.40;;;;;;;;;;5090141;28;20357;-83
2021/03/12 10:43:18;;;;;;;9.63;3.95;;;;;;;;;;5069911;28;20385;-81
2021/03/12 10:45:53;;;;;;;8.83;4.20;;;;;;;;;;5071771;28;20388;-83
2021/03/12 10:48:22;;;;;;;9.75;4.10;;;;;;;;;;5072844;28;20376;-83
2021/03/12 10:50:56;;;;;;;9.07;4.47;;;;;;;;;;5062817;28;20374;-83
2021/03/12 10:53:22;;;;;;;11.07;4.57;;;;;;;;;;5066110;28;20381;-83
2021/03/12 10:55:50;;;;;;;10.13;3.67;;;;;;;;;;5065800;28;20470;-83
2021/03/12 10:58:30;;;;;;;8.90;4.00;;;;;;;;;;5032724;28;20368;-83
2021/03/12 11:01:18;;;;;;;8.02;4.18;;;;;;;;;;5048842;28;20468;-83
2021/03/12 11:04:03;;;;;;;9.75;3.72;;;;;;;;;;5072837;28;20447;-83
2021/03/12 11:07:17;;;;;;;;;;;;;;;;;;;;;
2021/03/12 11:10:16;;;;;;;;;;;;;;;;;;;;;
2021/03/12 11:13:14;;;;;;;7.43;3.75;;;;;;;;;;4964165;28;20395;-83
2021/03/12 11:15:39;;;;;;;7.55;4.03;;;;;;;;;;5028982;28;20388;-84
2021/03/12 11:27:26;;;;;;;8.30;3.63;;;;;;;;;;4955679;28;20544;-82
2021/03/12 11:29:52;;;;;;;9.65;4.00;;;;;;;;;;4992609;28;20395;-83
2021/03/12 11:32:18;;;;;;;7.47;3.78;;;;;;;;;;5012825;28;20393;-83
2021/03/12 11:34:44;;;;;;;8.38;3.40;;;;;;;;;;5034809;28;20446;-83
2021/03/12 11:37:10;;;;;;;9.20;3.63;;;;;;;;;;5030445;28;20873;-82
2021/03/12 11:39:36;;;;;;;8.48;3.40;;;;;;;;;;5029818;28;20387;-82
2021/03/12 11:42:02;;;;;;;6.35;3.40;;;10.50;99.90;;;;;;5048836;28;20402;-84
2021/03/12 11:44:27;;;;;;;7.93;3.90;;;10.50;99.90;;;;;;5028662;28;20495;-86
2021/03/12 11:46:53;;;;;;;5.87;3.50;;;10.50;99.90;;;;;;5047344;28;20392;-84
2021/03/12 11:49:19;;;;;;;6.57;3.28;;;10.50;99.90;;;;;;5047770;28;20383;-83
2021/03/12 11:51:46;;;;;;;7.15;3.72;;;10.50;99.90;;;;;;5029261;28;20395;-84
2021/03/12 11:54:13;;;;;;;6.40;3.43;;;10.60;99.90;;;;;;5012971;28;20388;-84
2021/03/12 11:56:39;;;;;;;8.18;3.60;;;10.50;99.90;;;;;;5031792;28;20454;-84
2021/03/12 11:59:05;;;;;;;6.95;3.53;;;10.40;99.90;;;;;;5039621;28;20467;-85
2021/03/12 12:01:34;;;;;;;8.02;3.85;;;10.40;99.90;;;;;;5027415;28;20419;-86
2021/03/12 12:04:00;;;;;;;7.60;3.40;;;10.40;99.90;;;;;;5029920;28;20503;-85
2021/03/12 12:06:26;;;;;;;6.43;3.50;;;10.40;99.90;;;;;;5033800;28;20466;-82
2021/03/12 12:08:53;;;;;;;8.52;3.63;;;10.40;99.90;;;;;;5045935;28;20396;-85
2021/03/12 12:11:19;;;;;;;7.13;3.67;;;10.60;99.90;;;;;;5028833;28;20496;-84
2021/03/12 12:13:44;;;;;;;5.57;3.47;;;10.70;99.90;;;;;;5049038;28;20415;-84
2021/03/12 12:16:10;;;;;;;8.67;4.10;;;10.70;99.90;;;;;;5050732;28;20467;-87
2021/03/12 12:18:36;;;;;;;6.40;3.20;;;10.90;99.90;;;;;;5051822;28;20506;-85
2021/03/12 12:21:02;;;;;;;13.05;4.82;;;11.20;99.90;;;;;;5051165;28;20887;-85
2021/03/12 12:23:27;;;;;;;7.57;3.90;;;11.10;99.90;;;;;;5033398;28;20402;-85
2021/03/12 12:25:53;;;;;;;6.97;3.47;;;11.10;99.90;;;;;;5020922;28;21019;-85
2021/03/12 12:28:19;;;;;;;10.85;4.30;;;11.20;99.90;;;;;;5013691;28;20378;-85
2021/03/12 12:30:45;;;;;;;7.65;4.03;;;11.20;99.90;;;;;;5013636;28;20855;-85
2021/03/12 12:33:11;;;;;;;8.68;4.03;;;11.20;99.90;;;;;;5014190;28;20381;-85
2021/03/12 12:35:38;;;;;;;6.85;3.58;;;11.30;99.90;;;;;;5013029;28;21097;-85
2021/03/12 12:38:05;;;;;;;7.00;3.53;;;11.40;99.90;;;;;;5016014;28;20432;-85
2021/03/12 12:40:31;;;;;;;8.68;3.80;;;11.40;99.90;;;;;;5036022;28;20393;-85
2021/03/12 12:42:56;;;;;;;7.93;4.03;;;11.60;99.90;;;;;;5038838;28;20372;-85
2021/03/12 12:45:22;;;;;;;6.40;3.83;;;11.70;99.90;;;;;;5041596;28;20742;-85
2021/03/12 12:47:47;;;;;;;7.43;3.50;;;11.80;99.90;;;;;;5041439;28;20756;-85
2021/03/12 12:50:14;;;;;;;9.02;3.88;;;11.60;99.80;;;;;;5038131;28;20389;-84
2021/03/12 12:52:40;;;;;;;7.15;3.70;;;11.50;99.90;;;;;;5037916;28;20460;-85
2021/03/12 12:55:06;;;;;;;10.40;4.43;;;11.20;99.70;;;;;;5025211;28;20502;-86
2021/03/12 12:57:32;;;;;;;8.67;4.13;;;11.10;99.90;;;;;;5043771;28;20375;-85
2021/03/12 12:59:58;;;;;;;6.43;3.72;;;11.30;99.90;;;;;;5040259;28;20450;-86
2021/03/12 13:02:23;;;;;;;8.90;4.40;;;11.30;99.90;;;;;;5035511;28;20489;-85
2021/03/12 13:04:49;;;;;;;7.93;3.88;;;11.40;99.90;;;;;;5029653;28;20503;-84
2021/03/12 13:07:15;;;;;;;7.35;4.03;;;11.30;99.60;;;;;;5029376;28;20871;-86
2021/03/12 13:09:40;;;;;;;6.80;3.53;;;11.20;99.30;;;;;;5030290;28;20416;-83
2021/03/12 13:12:06;;;;;;;6.65;3.72;;;10.90;98.40;;;;;;5011639;28;20396;-84
2021/03/12 13:14:32;;;;;;;7.43;3.67;;;10.90;99.30;;;;;;5012854;28;20393;-83
2021/03/12 13:16:58;;;;;;;7.28;3.55;;;11.00;99.30;;;;;;5031643;28;20378;-85
2021/03/12 13:19:23;;;;;;;6.80;3.53;;;11.10;98.70;;;;;;5031872;28;20472;-85
2021/03/12 13:21:51;;;;;;;7.03;3.57;;;11.20;99.60;;;;;;5041040;28;20372;-86
2021/03/12 13:24:17;;;;;;;6.90;3.33;;;11.30;99.20;;;;;;5022612;28;20468;-86
2021/03/12 13:26:42;;;;;;;7.35;3.10;;;11.40;99.60;;;;;;5039314;28;20879;-82
2021/03/12 13:29:13;;;;;;;8.30;3.20;;;11.40;98.80;;;;;;5040404;28;20401;-86
2021/03/12 13:31:45;;;;;;;5.25;2.80;;;11.20;98.00;;;;;;5019766;28;20390;-86
2021/03/12 13:34:11;;;;;;;4.97;2.47;;;11.10;97.30;;;;;;5021522;28;20420;-85
2021/03/12 13:36:37;;;;;;;4.83;2.37;;;10.90;97.30;;;;;;5041315;28;20375;-87
2021/03/12 13:39:06;;;;;;;6.07;2.92;;;10.90;97.30;;;;;;5021315;28;20429;-84
2021/03/12 13:41:36;;;;;;;5.53;2.55;;;10.90;97.60;;;;;;5018294;28;20388;-83
2021/03/12 13:44:04;;;;;;;6.38;2.72;;;10.80;96.70;;;;;;5018606;28;20410;-84
2021/03/12 13:46:30;;;;;;;6.80;2.50;;;10.80;97.20;;;;;;5019138;28;20387;-84
2021/03/12 13:48:56;;;;;;;5.90;2.47;;;10.80;96.90;;;;;;5036486;28;20445;-84
2021/03/12 13:51:21;;;;;;;6.47;2.20;;;10.80;97.30;;;;;;5040555;28;20950;-85
2021/03/12 13:53:47;;;;;;;4.80;2.35;;;10.80;97.50;;;;;;5040094;28;20435;-82
2021/03/12 13:56:13;;;;;;;6.63;2.50;;;10.90;98.20;;;;;;5046242;28;20387;-85
2021/03/12 13:58:38;;;;;;;6.07;2.20;;;10.90;97.90;;;;;;5044066;28;20860;-85
2021/03/12 14:01:04;;;;;;;4.18;2.42;;;10.90;97.70;;;;;;5042886;28;20475;-86
2021/03/12 14:03:29;;;;;;;7.73;2.63;;;11.00;98.00;;;;;;5038796;28;20378;-86
2021/03/12 14:05:55;;;;;;;7.20;2.27;;;11.20;98.00;;;;;;5038826;28;20396;-85
2021/03/12 14:08:21;;;;;;;7.35;2.10;;;11.20;96.80;;;;;;5040660;28;20450;-85
2021/03/12 14:10:46;;;;;;;8.88;2.60;;;11.00;94.80;;;;;;5039418;28;20378;-84
2021/03/12 14:13:12;;;;;;;7.30;2.50;;;11.10;96.10;;;;;;5037178;28;20389;-86
2021/03/12 14:15:38;;;;;;;6.43;2.20;;;10.80;95.90;;;;;;5038436;28;20435;-86
2021/03/12 14:18:06;;;;;;;6.43;2.20;;;10.70;96.10;;;;;;5038264;28;20387;-85
2021/03/12 14:20:32;;;;;;;5.93;2.60;;;10.60;96.90;;;;;;5021618;28;20388;-85
2021/03/12 14:22:58;;;;;;;8.47;2.47;;;10.40;97.20;;;;;;5022775;28;20946;-86
2021/03/12 14:25:23;;;;;;;7.15;3.05;;;10.50;97.20;;;;;;5039279;28;20966;-86
2021/03/12 14:27:49;;;;;;;9.20;2.40;;;10.30;97.40;;;;;;5022884;28;20397;-85
2021/03/12 14:30:15;;;;;;;5.83;2.23;;;10.40;97.30;;;;;;5024431;28;20413;-85